createdAt,value
2023-01-09T00:01:34.062Z,7.60
2023-01-09T00:04:01.662Z,7.70
2023-01-09T00:06:32.726Z,7.80
2023-01-09T00:08:59.957Z,7.80
2023-01-09T00:11:27.372Z,7.70
2023-01-09T00:13:54.903Z,7.70
2023-01-09T00:16:22.312Z,7.70
2023-01-09T00:18:49.681Z,7.70
2023-01-09T00:21:19.383Z,7.60
2023-01-09T00:23:47.114Z,7.60
2023-01-09T00:26:18.356Z,7.60
2023-01-09T00:28:47.542Z,7.60
2023-01-09T00:31:18.469Z,7.60
2023-01-09T00:33:54.513Z,7.60
2023-01-09T00:36:24.509Z,7.50
2023-01-09T00:38:51.997Z,7.50
2023-01-09T00:41:30.421Z,7.50
2023-01-09T00:44:05.192Z,7.50
2023-01-09T00:46:36.535Z,7.50
2023-01-09T00:49:07.606Z,7.50
2023-01-09T00:51:37.002Z,7.40
2023-01-09T00:54:06.995Z,7.40
2023-01-09T00:56:35.802Z,7.40
2023-01-09T00:59:04.430Z,7.30
2023-01-09T01:01:34.465Z,7.30
2023-01-09T01:04:24.213Z,7.30
2023-01-09T01:07:14.902Z,7.30
2023-01-09T01:09:42.157Z,7.30
2023-01-09T01:12:09.438Z,7.40
2023-01-09T01:14:38.162Z,7.40
2023-01-09T01:17:06.567Z,7.30
2023-01-09T01:19:34.737Z,7.30
2023-01-09T01:22:02.894Z,7.30
2023-01-09T01:24:30.330Z,7.30
2023-01-09T01:26:59.815Z,7.30
2023-01-09T01:29:27.619Z,7.30
2023-01-09T01:31:57.391Z,7.30
2023-01-09T01:34:27.886Z,7.20
2023-01-09T01:36:57.638Z,7.20
2023-01-09T01:39:24.928Z,7.20
2023-01-09T01:41:54.661Z,7.20
2023-01-09T01:44:59.013Z,7.20
2023-01-09T01:48:03.632Z,7.20
2023-01-09T01:50:56.789Z,7.20
2023-01-09T01:53:33.464Z,7.20
2023-01-09T01:56:30.144Z,7.20
2023-01-09T01:59:24.662Z,7.20
2023-01-09T02:01:55.670Z,7.10
2023-01-09T02:04:25.381Z,7.10
2023-01-09T02:06:55.208Z,7.10
2023-01-09T02:09:25.289Z,7.00
2023-01-09T02:11:56.926Z,7.10
2023-01-09T02:14:31.657Z,7.00
2023-01-09T02:17:15.333Z,7.00
2023-01-09T02:19:48.554Z,7.00
2023-01-09T02:22:18.630Z,7.00
2023-01-09T02:25:04.575Z,7.00
2023-01-09T02:27:53.626Z,7.00
2023-01-09T02:30:27.050Z,7.10
2023-01-09T02:33:22.583Z,7.20
2023-01-09T02:36:08.496Z,7.20
2023-01-09T02:38:35.737Z,7.30
2023-01-09T02:41:24.310Z,7.30
2023-01-09T02:44:15.771Z,7.30
2023-01-09T02:46:45.822Z,7.40
2023-01-09T02:49:15.260Z,7.30
2023-01-09T02:52:19.537Z,7.30
2023-01-09T02:54:56.284Z,7.30
2023-01-09T02:57:49.624Z,7.30
2023-01-09T03:00:22.627Z,7.40
2023-01-09T03:03:16.205Z,7.30
2023-01-09T03:05:53.487Z,7.40
2023-01-09T03:08:29.215Z,7.40
2023-01-09T03:11:06.648Z,7.40
2023-01-09T03:13:41.382Z,7.40
2023-01-09T03:16:11.536Z,7.50
2023-01-09T03:18:39.269Z,7.40
2023-01-09T03:21:08.833Z,7.50
2023-01-09T03:23:55.266Z,7.60
2023-01-09T03:26:23.507Z,7.60
2023-01-09T03:28:51.205Z,7.60
2023-01-09T03:31:21.560Z,7.70
2023-01-09T03:33:49.057Z,7.70
2023-01-09T03:36:18.360Z,7.80
2023-01-09T03:38:45.894Z,7.80
2023-01-09T03:41:13.261Z,7.90
2023-01-09T03:43:40.529Z,7.90
2023-01-09T03:46:07.848Z,7.80
2023-01-09T03:48:35.273Z,7.80
2023-01-09T03:51:05.126Z,7.90
2023-01-09T03:53:35.008Z,7.90
2023-01-09T03:56:02.315Z,7.90
2023-01-09T03:58:29.764Z,7.90
2023-01-09T04:01:02.048Z,7.90
2023-01-09T04:03:29.535Z,7.90
2023-01-09T04:05:59.197Z,7.90
2023-01-09T04:08:26.516Z,8.00
2023-01-09T04:10:53.805Z,7.90
2023-01-09T04:13:21.053Z,7.90
2023-01-09T04:15:48.584Z,7.90
2023-01-09T04:18:16.234Z,7.90
2023-01-09T04:20:49.010Z,8.00
2023-01-09T04:23:17.060Z,8.00
2023-01-09T04:25:44.329Z,8.00
2023-01-09T04:28:14.035Z,8.10
2023-01-09T04:30:41.328Z,8.20
2023-01-09T04:33:08.616Z,8.10
2023-01-09T04:35:35.889Z,8.20
2023-01-09T04:38:03.307Z,8.20
2023-01-09T04:40:30.526Z,8.30
2023-01-09T04:42:57.778Z,8.30
2023-01-09T04:45:25.144Z,8.20
2023-01-09T04:47:52.392Z,8.20
2023-01-09T04:50:19.687Z,8.20
2023-01-09T04:52:46.964Z,8.30
2023-01-09T04:55:16.475Z,8.30
2023-01-09T04:57:43.717Z,8.40
2023-01-09T05:00:12.423Z,8.40
2023-01-09T05:02:42.457Z,8.40
2023-01-09T05:05:11.788Z,8.40
2023-01-09T05:07:41.479Z,8.50
2023-01-09T05:10:10.315Z,8.50
2023-01-09T05:12:40.189Z,8.60
2023-01-09T05:15:09.011Z,8.60
2023-01-09T05:17:36.236Z,8.60
2023-01-09T05:20:04.440Z,8.60
2023-01-09T05:22:31.763Z,8.60
2023-01-09T05:25:00.509Z,8.60
2023-01-09T05:27:32.696Z,8.60
2023-01-09T05:30:04.941Z,8.60
2023-01-09T05:32:32.246Z,8.70
2023-01-09T05:35:04.325Z,8.70
2023-01-09T05:37:34.032Z,8.70
2023-01-09T05:40:03.650Z,8.70
2023-01-09T05:42:30.927Z,8.70
2023-01-09T05:44:58.145Z,8.80
2023-01-09T05:47:27.608Z,8.70
2023-01-09T05:49:57.602Z,8.80
2023-01-09T05:52:27.459Z,8.80
2023-01-09T05:54:57.214Z,8.70
2023-01-09T05:57:24.563Z,8.60
2023-01-09T05:59:51.831Z,8.60
2023-01-09T06:02:19.109Z,8.60
2023-01-09T06:04:46.523Z,8.60
2023-01-09T06:07:18.896Z,8.60
2023-01-09T06:09:47.723Z,8.60
2023-01-09T06:12:14.918Z,8.50
2023-01-09T06:14:46.882Z,8.50
2023-01-09T06:17:14.099Z,8.40
2023-01-09T06:19:45.717Z,8.40
2023-01-09T06:22:12.958Z,8.30
2023-01-09T06:24:42.556Z,8.40
2023-01-09T06:27:13.205Z,8.30
2023-01-09T06:29:45.484Z,8.30
2023-01-09T06:32:17.579Z,8.30
2023-01-09T06:34:44.922Z,8.40
2023-01-09T06:37:14.426Z,8.50
2023-01-09T06:39:41.705Z,8.50
2023-01-09T06:42:09.158Z,8.50
2023-01-09T06:44:36.791Z,8.50
2023-01-09T06:47:07.078Z,8.50
2023-01-09T06:49:34.314Z,8.50
2023-01-09T06:52:05.606Z,8.60
2023-01-09T06:54:35.540Z,8.50
2023-01-09T06:57:02.794Z,8.50
2023-01-09T06:59:30.056Z,8.50
2023-01-09T07:01:57.384Z,8.50
2023-01-09T07:04:24.906Z,8.60
2023-01-09T07:06:52.212Z,8.40
2023-01-09T07:09:19.567Z,8.30
2023-01-09T07:11:46.939Z,8.30
2023-01-09T07:14:14.243Z,8.40
2023-01-09T07:16:41.616Z,8.30
2023-01-09T07:19:09.039Z,8.30
2023-01-09T07:21:36.303Z,8.40
2023-01-09T07:24:03.555Z,8.40
2023-01-09T07:26:33.220Z,8.40
2023-01-09T07:29:00.586Z,8.40
2023-01-09T07:31:30.250Z,8.50
2023-01-09T07:33:59.719Z,8.60
2023-01-09T07:36:31.715Z,8.60
2023-01-09T07:38:58.953Z,8.60
2023-01-09T07:41:26.223Z,8.60
2023-01-09T07:43:57.044Z,8.60
2023-01-09T07:46:24.397Z,8.70
2023-01-09T07:48:54.186Z,8.60
2023-01-09T07:51:21.547Z,8.60
2023-01-09T07:53:48.803Z,8.60
2023-01-09T07:56:18.288Z,8.50
2023-01-09T07:58:45.561Z,8.60
2023-01-09T08:01:12.959Z,8.60
2023-01-09T08:03:42.472Z,8.60
2023-01-09T08:06:10.343Z,8.60
2023-01-09T08:08:37.655Z,8.70
2023-01-09T08:11:05.183Z,8.60
2023-01-09T08:13:32.478Z,8.60
2023-01-09T08:16:02.305Z,8.50
2023-01-09T08:18:29.631Z,8.50
2023-01-09T08:20:56.938Z,8.50
2023-01-09T08:23:26.794Z,8.50
2023-01-09T08:25:54.046Z,8.60
2023-01-09T08:28:25.938Z,8.60
2023-01-09T08:30:53.216Z,8.60
2023-01-09T08:33:20.591Z,8.60
2023-01-09T08:35:48.133Z,8.60
2023-01-09T08:38:15.433Z,8.60
2023-01-09T08:40:42.721Z,8.70
2023-01-09T08:43:45.273Z,8.60
2023-01-09T08:46:38.382Z,8.70
2023-01-09T08:49:08.181Z,8.70
2023-01-09T08:51:35.494Z,8.80
2023-01-09T08:54:02.798Z,8.70
2023-01-09T08:56:30.088Z,8.70
2023-01-09T08:58:59.955Z,8.70
2023-01-09T09:01:29.639Z,8.70
2023-01-09T09:03:56.980Z,8.70
2023-01-09T09:06:26.877Z,8.70
2023-01-09T09:08:57.034Z,8.70
2023-01-09T09:11:24.329Z,8.80
2023-01-09T09:13:51.667Z,8.80
2023-01-09T09:16:19.080Z,8.80
2023-01-09T09:18:48.704Z,8.80
2023-01-09T09:21:16.064Z,8.80
2023-01-09T09:23:46.010Z,8.80
2023-01-09T09:26:13.524Z,8.80
2023-01-09T09:28:43.105Z,8.80
2023-01-09T09:31:10.645Z,8.80
2023-01-09T09:33:37.948Z,8.70
2023-01-09T09:36:05.734Z,8.70
2023-01-09T09:38:33.320Z,8.70
2023-01-09T09:41:50.000Z,8.70
2023-01-09T09:44:52.642Z,8.70
2023-01-09T09:47:41.612Z,8.70
2023-01-09T09:50:48.011Z,8.70
2023-01-09T09:53:32.303Z,8.70
2023-01-09T09:55:59.880Z,8.70
2023-01-09T09:58:36.965Z,8.70
2023-01-09T10:01:05.975Z,8.70
2023-01-09T10:03:39.591Z,8.80
2023-01-09T10:06:18.204Z,8.70
2023-01-09T10:09:24.916Z,8.70
2023-01-09T10:12:04.092Z,8.80
2023-01-09T10:14:31.842Z,8.80
2023-01-09T10:17:28.102Z,8.70
2023-01-09T10:20:17.122Z,8.70
2023-01-09T10:23:12.112Z,8.70
2023-01-09T10:26:07.914Z,8.60
2023-01-09T10:28:57.208Z,8.60
2023-01-09T10:31:44.881Z,8.70
2023-01-09T10:34:33.831Z,8.70
2023-01-09T10:37:09.448Z,8.80
2023-01-09T10:39:48.654Z,8.90
2023-01-09T10:42:21.266Z,9.20
2023-01-09T10:44:59.697Z,9.40
2023-01-09T10:47:35.577Z,9.70
2023-01-09T10:50:15.781Z,9.60
2023-01-09T10:52:46.375Z,9.50
2023-01-09T10:55:19.832Z,9.60
2023-01-09T10:57:51.934Z,9.70
2023-01-09T11:00:24.136Z,9.80
2023-01-09T11:02:53.345Z,9.70
2023-01-09T11:05:27.897Z,9.70
2023-01-09T11:08:13.275Z,10.10
2023-01-09T11:10:57.692Z,10.40
2023-01-09T11:13:36.593Z,10.30
2023-01-09T11:16:09.510Z,10.30
2023-01-09T11:18:58.583Z,10.10
2023-01-09T11:21:28.724Z,9.90
2023-01-09T11:23:56.921Z,9.80
2023-01-09T11:26:27.201Z,10.10
2023-01-09T11:29:10.168Z,10.10
2023-01-09T11:31:38.248Z,9.90
2023-01-09T11:34:17.889Z,9.60
2023-01-09T11:36:48.805Z,9.40
2023-01-09T11:39:41.397Z,9.30
2023-01-09T11:42:42.132Z,9.20
2023-01-09T11:45:22.197Z,9.20
2023-01-09T11:47:51.706Z,9.30
2023-01-09T11:50:20.782Z,9.20
2023-01-09T11:53:18.081Z,9.30
2023-01-09T11:55:47.703Z,9.40
2023-01-09T11:58:17.876Z,10.00
2023-01-09T12:00:55.021Z,10.90
2023-01-09T12:03:39.655Z,12.10
2023-01-09T12:06:39.657Z,12.00
2023-01-09T12:09:12.579Z,11.70
2023-01-09T12:11:59.490Z,11.10
2023-01-09T12:15:20.140Z,10.90
2023-01-09T12:18:03.902Z,10.80
2023-01-09T12:20:43.639Z,10.60
2023-01-09T12:23:42.695Z,10.40
2023-01-09T12:26:25.951Z,10.20
2023-01-09T12:29:05.147Z,10.10
2023-01-09T12:32:03.212Z,9.90
2023-01-09T12:34:42.209Z,9.90
2023-01-09T12:37:47.233Z,9.70
2023-01-09T12:40:34.029Z,9.80
2023-01-09T12:43:10.394Z,9.90
2023-01-09T12:46:01.509Z,10.00
2023-01-09T12:48:40.517Z,10.10
2023-01-09T12:51:35.093Z,10.20
2023-01-09T12:54:12.623Z,10.10
2023-01-09T12:56:59.855Z,10.00
2023-01-09T12:59:32.345Z,10.00
2023-01-09T13:02:12.343Z,10.00
2023-01-09T13:04:55.938Z,10.00
2023-01-09T13:07:30.279Z,9.90
2023-01-09T13:10:03.588Z,9.80
2023-01-09T13:12:36.825Z,9.90
2023-01-09T13:15:05.990Z,9.90
2023-01-09T13:17:38.202Z,10.00
2023-01-09T13:20:21.055Z,10.10
2023-01-09T13:22:51.053Z,10.40
2023-01-09T13:25:19.084Z,10.60
2023-01-09T13:27:54.538Z,10.70
2023-01-09T13:30:38.625Z,11.10
2023-01-09T13:33:27.024Z,11.20
2023-01-09T13:35:59.297Z,11.30
2023-01-09T13:38:29.193Z,11.60
2023-01-09T13:41:45.883Z,11.50
2023-01-09T13:44:25.576Z,11.50
2023-01-09T13:46:59.019Z,11.50
2023-01-09T13:49:39.240Z,11.30
2023-01-09T13:52:39.932Z,11.20
2023-01-09T13:55:36.014Z,11.00
2023-01-09T13:58:06.508Z,11.00
2023-01-09T14:00:36.647Z,11.70
2023-01-09T14:03:42.861Z,12.40
2023-01-09T14:06:14.319Z,13.10
2023-01-09T14:08:42.664Z,12.80
2023-01-09T14:11:17.089Z,12.50
2023-01-09T14:13:46.151Z,12.00
2023-01-09T14:16:23.627Z,11.60
2023-01-09T14:19:11.297Z,11.40
2023-01-09T14:21:54.457Z,11.20
2023-01-09T14:24:55.470Z,11.10
2023-01-09T14:28:08.656Z,11.00
2023-01-09T14:30:38.332Z,11.00
2023-01-09T14:33:18.649Z,10.90
2023-01-09T14:35:46.674Z,10.80
2023-01-09T14:38:31.186Z,10.70
2023-01-09T14:41:51.581Z,10.50
2023-01-09T14:44:47.576Z,10.40
2023-01-09T14:47:45.074Z,10.10
2023-01-09T14:50:36.943Z,10.00
2023-01-09T14:53:11.119Z,10.00
2023-01-09T14:55:55.041Z,10.00
2023-01-09T14:58:36.217Z,10.10
2023-01-09T15:01:11.002Z,9.90
2023-01-09T15:03:46.729Z,9.80
2023-01-09T15:06:18.302Z,9.90
2023-01-09T15:08:47.353Z,9.80
2023-01-09T15:11:20.522Z,9.70
2023-01-09T15:13:50.458Z,9.80
2023-01-09T15:16:22.852Z,9.80
2023-01-09T15:18:53.552Z,9.80
2023-01-09T15:21:26.498Z,9.80
2023-01-09T15:23:54.149Z,9.70
2023-01-09T15:26:30.116Z,9.60
2023-01-09T15:29:20.486Z,9.50
2023-01-09T15:31:53.588Z,9.60
2023-01-09T15:34:23.756Z,9.70
2023-01-09T15:36:53.942Z,9.60
2023-01-09T15:39:35.936Z,9.50
2023-01-09T15:42:22.354Z,9.40
2023-01-09T15:44:52.211Z,9.30
2023-01-09T15:47:29.439Z,9.20
2023-01-09T15:50:01.491Z,9.20
2023-01-09T15:52:34.062Z,9.30
2023-01-09T15:55:15.498Z,9.30
2023-01-09T15:57:52.085Z,9.40
2023-01-09T16:00:39.391Z,9.30
2023-01-09T16:03:17.722Z,9.20
2023-01-09T16:06:05.487Z,9.30
2023-01-09T16:08:42.514Z,9.30
2023-01-09T16:11:38.759Z,9.30
2023-01-09T16:14:38.549Z,9.10
2023-01-09T16:17:17.954Z,9.00
2023-01-09T16:19:59.465Z,8.90
2023-01-09T16:22:36.922Z,9.00
2023-01-09T16:25:28.554Z,9.00
2023-01-09T16:28:27.109Z,8.90
2023-01-09T16:30:58.333Z,9.00
2023-01-09T16:33:29.380Z,8.90
2023-01-09T16:35:58.745Z,8.90
2023-01-09T16:38:26.905Z,8.80
2023-01-09T16:41:21.841Z,8.90
2023-01-09T16:43:50.733Z,8.80
2023-01-09T16:46:20.616Z,8.80
2023-01-09T16:48:48.656Z,8.90
2023-01-09T16:51:25.793Z,8.90
2023-01-09T16:53:53.076Z,8.70
2023-01-09T16:56:24.545Z,8.80
2023-01-09T16:58:55.349Z,8.80
2023-01-09T17:01:23.242Z,8.80
2023-01-09T17:03:52.444Z,8.70
2023-01-09T17:06:30.343Z,8.70
2023-01-09T17:08:58.380Z,8.60
2023-01-09T17:11:32.008Z,8.60
2023-01-09T17:14:00.526Z,8.60
2023-01-09T17:16:29.284Z,8.50
2023-01-09T17:18:59.177Z,8.50
2023-01-09T17:21:30.967Z,8.50
2023-01-09T17:24:18.307Z,8.50
2023-01-09T17:27:09.009Z,8.50
2023-01-09T17:29:36.606Z,8.60
2023-01-09T17:32:06.697Z,8.50
2023-01-09T17:34:34.830Z,8.40
2023-01-09T17:37:04.775Z,8.30
2023-01-09T17:39:34.669Z,8.30
2023-01-09T17:42:04.131Z,8.10
2023-01-09T17:44:33.624Z,7.90
2023-01-09T17:47:03.104Z,7.90
2023-01-09T17:49:30.410Z,7.90
2023-01-09T17:52:02.377Z,7.90
2023-01-09T17:54:30.365Z,7.90
2023-01-09T17:57:04.369Z,7.90
2023-01-09T17:59:31.687Z,8.00
2023-01-09T18:01:59.044Z,8.10
2023-01-09T18:04:28.786Z,8.20
2023-01-09T18:06:56.184Z,8.30
2023-01-09T18:09:26.899Z,8.10
2023-01-09T18:11:56.821Z,8.20
2023-01-09T18:14:26.457Z,8.30
2023-01-09T18:16:54.102Z,8.20
2023-01-09T18:19:21.361Z,8.30
2023-01-09T18:21:48.605Z,8.30
2023-01-09T18:24:22.794Z,8.40
2023-01-09T18:26:52.229Z,8.30
2023-01-09T18:29:21.305Z,8.30
2023-01-09T18:31:53.483Z,8.30
2023-01-09T18:34:23.489Z,8.30
2023-01-09T18:36:50.744Z,8.30
2023-01-09T18:39:18.285Z,8.20
2023-01-09T18:41:47.742Z,8.20
2023-01-09T18:44:15.030Z,8.10
2023-01-09T18:46:43.579Z,8.00
2023-01-09T18:49:13.399Z,8.00
2023-01-09T18:51:45.826Z,7.90
2023-01-09T18:54:15.502Z,8.00
2023-01-09T18:56:45.298Z,8.00
2023-01-09T18:59:12.702Z,7.90
2023-01-09T19:01:39.963Z,7.90
2023-01-09T19:04:07.306Z,7.90
2023-01-09T19:06:34.785Z,7.90
2023-01-09T19:09:06.725Z,7.80
2023-01-09T19:11:36.681Z,7.90
2023-01-09T19:14:04.795Z,7.90
2023-01-09T19:16:32.172Z,7.90
2023-01-09T19:19:01.964Z,7.90
2023-01-09T19:21:29.790Z,8.00
2023-01-09T19:23:58.849Z,7.90
2023-01-09T19:26:28.326Z,7.90
2023-01-09T19:28:58.208Z,7.90
2023-01-09T19:31:28.319Z,7.80
2023-01-09T19:33:56.633Z,7.80
2023-01-09T19:36:24.015Z,7.60
2023-01-09T19:38:59.570Z,7.60
2023-01-09T19:41:27.844Z,7.50
2023-01-09T19:43:55.523Z,7.50
2023-01-09T19:46:24.342Z,7.60
2023-01-09T19:48:52.688Z,7.50
2023-01-09T19:51:21.358Z,7.50
2023-01-09T19:53:53.795Z,7.40
2023-01-09T19:56:27.132Z,7.40
2023-01-09T19:58:55.302Z,7.40
2023-01-09T20:01:24.993Z,7.30
2023-01-09T20:03:54.144Z,7.20
2023-01-09T20:06:24.394Z,7.20
2023-01-09T20:08:56.698Z,7.20
2023-01-09T20:11:28.243Z,7.10
2023-01-09T20:14:00.450Z,7.20
2023-01-09T20:16:30.473Z,7.20
2023-01-09T20:19:00.024Z,7.20
2023-01-09T20:21:28.711Z,7.10
2023-01-09T20:23:59.289Z,7.10
2023-01-09T20:26:27.332Z,7.10
2023-01-09T20:28:55.526Z,7.20
2023-01-09T20:31:24.011Z,7.30
2023-01-09T20:33:54.226Z,7.20
2023-01-09T20:36:27.491Z,7.20
2023-01-09T20:38:55.843Z,7.30
2023-01-09T20:41:26.547Z,7.30
2023-01-09T20:43:58.266Z,7.20
2023-01-09T20:46:28.749Z,7.20
2023-01-09T20:49:03.096Z,7.10
2023-01-09T20:51:31.090Z,7.00
2023-01-09T20:53:59.053Z,6.90
2023-01-09T20:56:28.145Z,7.00
2023-01-09T20:58:56.440Z,6.90
2023-01-09T21:01:24.883Z,7.00
2023-01-09T21:03:53.739Z,6.90
2023-01-09T21:06:22.938Z,7.00
2023-01-09T21:08:51.048Z,6.90
2023-01-09T21:11:23.978Z,6.90
2023-01-09T21:13:51.913Z,6.80
2023-01-09T21:16:21.713Z,6.70
2023-01-09T21:18:49.206Z,6.70
2023-01-09T21:21:20.220Z,6.70
2023-01-09T21:23:54.490Z,6.60
2023-01-09T21:26:24.773Z,6.50
2023-01-09T21:28:58.753Z,6.50
2023-01-09T21:31:34.892Z,6.50
2023-01-09T21:34:05.008Z,6.50
2023-01-09T21:36:35.513Z,6.40
2023-01-09T21:39:05.959Z,6.40
2023-01-09T21:41:57.760Z,6.50
2023-01-09T21:44:43.694Z,6.50
2023-01-09T21:47:11.212Z,6.50
2023-01-09T21:49:43.043Z,6.50
2023-01-09T21:52:14.977Z,6.50
2023-01-09T21:54:44.750Z,6.40
2023-01-09T21:57:14.619Z,6.40
2023-01-09T21:59:44.899Z,6.40
2023-01-09T22:02:16.035Z,6.40
2023-01-09T22:04:43.348Z,6.40
2023-01-09T22:07:10.642Z,6.40
2023-01-09T22:09:40.662Z,6.40
2023-01-09T22:12:08.965Z,6.40
2023-01-09T22:14:37.275Z,6.30
2023-01-09T22:17:06.205Z,6.40
2023-01-09T22:19:35.620Z,6.40
2023-01-09T22:22:07.253Z,6.50
2023-01-09T22:24:37.060Z,6.60
2023-01-09T22:27:04.845Z,6.60
2023-01-09T22:29:32.151Z,6.50
2023-01-09T22:31:59.435Z,6.40
2023-01-09T22:34:26.808Z,6.60
2023-01-09T22:36:56.386Z,6.70
2023-01-09T22:39:23.698Z,6.70
2023-01-09T22:41:55.261Z,6.60
2023-01-09T22:44:22.584Z,6.70
2023-01-09T22:46:54.513Z,6.70
2023-01-09T22:49:21.774Z,6.80
2023-01-09T22:51:49.090Z,6.70
2023-01-09T22:54:16.413Z,6.70
2023-01-09T22:56:48.383Z,6.80
2023-01-09T22:59:15.591Z,6.70
2023-01-09T23:01:42.935Z,6.70
2023-01-09T23:04:13.686Z,6.70
2023-01-09T23:06:40.966Z,6.60
2023-01-09T23:09:08.381Z,6.60
2023-01-09T23:11:55.781Z,6.70
2023-01-09T23:14:23.133Z,6.80
2023-01-09T23:16:50.432Z,6.80
2023-01-09T23:19:17.797Z,6.60
2023-01-09T23:21:47.824Z,6.50
2023-01-09T23:24:16.662Z,6.50
2023-01-09T23:26:44.555Z,6.60
2023-01-09T23:29:12.768Z,6.60
2023-01-09T23:31:40.314Z,6.70
2023-01-09T23:34:12.806Z,6.70
2023-01-09T23:36:40.364Z,6.70
2023-01-09T23:39:10.577Z,6.80
2023-01-09T23:41:56.231Z,6.80
2023-01-09T23:44:23.741Z,6.80
2023-01-09T23:46:53.725Z,6.80
2023-01-09T23:49:21.397Z,6.80
2023-01-09T23:51:50.811Z,6.80
2023-01-09T23:54:20.703Z,6.80
2023-01-09T23:56:50.205Z,6.80
2023-01-09T23:59:22.528Z,6.70
